createdAt,value
2023-05-11T00:01:09.099Z,0.40
2023-05-11T00:04:11.071Z,0.30
2023-05-11T00:07:13.119Z,0.37
2023-05-11T00:10:15.244Z,0.20
2023-05-11T00:13:17.801Z,0.23
2023-05-11T00:16:20.581Z,0.50
2023-05-11T00:19:22.459Z,0.40
2023-05-11T00:22:24.381Z,0.40
2023-05-11T00:25:26.262Z,0.30
2023-05-11T00:28:28.441Z,0.53
2023-05-11T00:31:30.668Z,0.40
2023-05-11T00:34:33.843Z,0.50
2023-05-11T00:37:35.740Z,0.30
2023-05-11T00:40:37.640Z,0.30
2023-05-11T00:43:39.526Z,0.30
2023-05-11T00:46:41.730Z,0.40
2023-05-11T00:49:44.462Z,0.40
2023-05-11T00:52:46.683Z,0.47
2023-05-11T00:55:50.889Z,0.40
2023-05-11T00:58:54.166Z,0.30
2023-05-11T01:01:57.726Z,0.20
2023-05-11T01:05:01.899Z,0.40
2023-05-11T01:08:09.532Z,0.30
2023-05-11T01:11:23.562Z,0.43
2023-05-11T01:14:36.239Z,0.30
2023-05-11T01:17:44.461Z,0.57
2023-05-11T01:20:47.700Z,0.40
2023-05-11T01:24:14.530Z,0.40
2023-05-11T01:27:54.564Z,0.40
2023-05-11T01:31:07.556Z,0.30
2023-05-11T01:34:16.148Z,0.30
2023-05-11T01:37:23.394Z,0.60
2023-05-11T01:40:28.559Z,0.40
2023-05-11T01:43:31.647Z,0.30
2023-05-11T01:46:34.518Z,0.30
2023-05-11T01:49:39.082Z,0.30
2023-05-11T01:52:41.189Z,0.40
2023-05-11T01:55:43.951Z,0.30
2023-05-11T01:58:46.161Z,0.27
2023-05-11T02:01:48.626Z,0.30
2023-05-11T02:04:50.727Z,0.50
2023-05-11T02:07:54.741Z,0.50
2023-05-11T02:10:58.011Z,0.53
2023-05-11T02:14:00.671Z,0.40
2023-05-11T02:17:07.103Z,0.53
2023-05-11T02:20:10.123Z,0.57
2023-05-11T02:23:12.347Z,0.40
2023-05-11T02:26:15.196Z,0.40
2023-05-11T02:29:17.222Z,0.53
2023-05-11T02:32:22.909Z,0.60
2023-05-11T02:35:28.864Z,0.50
2023-05-11T02:38:33.546Z,0.30
2023-05-11T02:41:40.399Z,0.30
2023-05-11T02:44:47.060Z,0.30
2023-05-11T02:47:54.203Z,0.80
2023-05-11T02:50:57.533Z,0.53
2023-05-11T02:53:59.995Z,0.60
2023-05-11T02:57:02.051Z,0.53
2023-05-11T03:00:04.283Z,0.80
2023-05-11T03:03:06.304Z,0.60
2023-05-11T03:06:08.213Z,0.30
2023-05-11T03:09:10.509Z,0.60
2023-05-11T03:12:12.475Z,0.40
2023-05-11T03:15:15.881Z,0.57
2023-05-11T03:18:19.204Z,0.57
2023-05-11T03:21:22.294Z,0.70
2023-05-11T03:24:25.164Z,0.50
2023-05-11T03:27:27.873Z,0.50
2023-05-11T03:30:30.470Z,0.57
2023-05-11T03:33:32.602Z,0.50
2023-05-11T03:36:35.371Z,0.53
2023-05-11T03:39:38.186Z,0.50
2023-05-11T03:42:40.392Z,0.33
2023-05-11T03:45:43.451Z,0.70
2023-05-11T03:48:45.915Z,0.50
2023-05-11T03:51:48.142Z,0.60
2023-05-11T03:54:50.595Z,0.57
2023-05-11T03:57:52.668Z,0.50
2023-05-11T04:00:54.733Z,0.70
2023-05-11T04:03:56.773Z,0.63
2023-05-11T04:06:59.991Z,0.83
2023-05-11T04:10:03.216Z,0.87
2023-05-11T04:13:06.004Z,0.70
2023-05-11T04:16:08.666Z,0.57
2023-05-11T04:19:10.761Z,0.67
2023-05-11T04:22:12.701Z,0.60
2023-05-11T04:25:14.914Z,0.60
2023-05-11T04:28:17.885Z,0.40
2023-05-11T04:31:19.981Z,0.50
2023-05-11T04:34:21.976Z,0.50
2023-05-11T04:37:24.258Z,0.60
2023-05-11T04:40:27.090Z,0.40
2023-05-11T04:43:29.780Z,0.50
2023-05-11T04:46:31.719Z,0.60
2023-05-11T04:49:33.699Z,0.60
2023-05-11T04:52:35.905Z,0.50
2023-05-11T04:55:43.308Z,0.47
2023-05-11T04:58:45.724Z,0.73
2023-05-11T05:01:47.507Z,0.53
2023-05-11T05:04:49.407Z,0.43
2023-05-11T05:07:51.343Z,0.40
2023-05-11T05:10:53.203Z,0.63
2023-05-11T05:13:55.371Z,0.47
2023-05-11T05:16:57.767Z,0.40
2023-05-11T05:19:59.824Z,0.40
2023-05-11T05:23:02.562Z,0.60
2023-05-11T05:26:04.504Z,0.50
2023-05-11T05:29:07.621Z,0.57
2023-05-11T05:32:09.500Z,0.50
2023-05-11T05:35:11.427Z,0.67
2023-05-11T05:38:13.222Z,0.50
2023-05-11T05:41:15.298Z,0.60
2023-05-11T05:44:17.846Z,0.50
2023-05-11T05:47:19.728Z,0.40
2023-05-11T05:50:21.644Z,0.53
2023-05-11T05:53:23.678Z,0.40
2023-05-11T05:56:26.570Z,0.40
2023-05-11T05:59:28.994Z,0.20
2023-05-11T06:02:31.320Z,0.50
2023-05-11T06:05:33.300Z,0.40
2023-05-11T06:08:35.111Z,0.40
2023-05-11T06:11:37.103Z,0.40
2023-05-11T06:14:39.001Z,0.40
2023-05-11T06:17:41.014Z,0.60
2023-05-11T06:20:43.452Z,0.40
2023-05-11T06:23:45.282Z,0.60
2023-05-11T06:26:47.212Z,0.70
2023-05-11T06:29:49.127Z,0.50
2023-05-11T06:32:51.152Z,0.73
2023-05-11T06:35:53.014Z,0.70
2023-05-11T06:38:55.004Z,1.00
2023-05-11T06:41:59.316Z,0.90
2023-05-11T06:45:03.634Z,0.37
2023-05-11T06:48:05.806Z,0.50
2023-05-11T06:51:10.820Z,0.40
2023-05-11T06:54:12.742Z,0.47
2023-05-11T07:01:38.805Z,0.40
2023-05-11T07:04:41.066Z,0.40
2023-05-11T07:07:43.635Z,0.40
2023-05-11T07:10:45.579Z,0.20
2023-05-11T07:13:47.559Z,0.30
2023-05-11T07:16:53.101Z,0.30
2023-05-11T07:19:55.720Z,0.40
2023-05-11T07:22:59.983Z,0.50
2023-05-11T07:26:04.158Z,0.50
2023-05-11T07:29:06.066Z,0.30
2023-05-11T07:32:07.978Z,0.20
2023-05-11T07:35:10.513Z,0.30
2023-05-11T07:38:13.999Z,0.30
2023-05-11T07:41:16.183Z,0.30
2023-05-11T07:44:18.422Z,0.40
2023-05-11T07:47:21.322Z,0.30
2023-05-11T07:50:24.619Z,0.40
2023-05-11T07:53:26.927Z,0.30
2023-05-11T07:56:29.414Z,0.27
2023-05-11T07:59:31.596Z,0.20
2023-05-11T08:02:33.516Z,0.30
2023-05-11T08:05:38.080Z,0.30
2023-05-11T08:08:40.095Z,0.40
2023-05-11T08:11:42.193Z,0.40
2023-05-11T08:14:44.067Z,0.20
2023-05-11T08:17:46.593Z,0.20
2023-05-11T08:20:48.545Z,0.60
2023-05-11T08:23:50.406Z,0.30
2023-05-11T08:26:52.257Z,0.10
2023-05-11T08:29:55.597Z,0.37
2023-05-11T08:32:59.252Z,0.20
2023-05-11T08:36:01.980Z,0.20
2023-05-11T08:39:05.402Z,0.30
2023-05-11T08:42:07.998Z,0.30
2023-05-11T08:45:11.103Z,0.40
2023-05-11T08:48:13.074Z,0.30
2023-05-11T08:51:14.937Z,0.10
2023-05-11T08:54:17.331Z,0.23
2023-05-11T08:57:19.804Z,0.60
2023-05-11T09:00:23.598Z,0.40
2023-05-11T09:03:25.792Z,0.33
2023-05-11T09:06:28.951Z,0.20
2023-05-11T09:09:31.470Z,0.30
2023-05-11T09:12:33.503Z,0.40
2023-05-11T09:15:38.072Z,0.30
2023-05-11T09:18:51.365Z,0.40
2023-05-11T09:21:53.962Z,0.30
2023-05-11T09:24:55.922Z,0.10
2023-05-11T09:27:58.342Z,0.30
2023-05-11T09:31:00.353Z,0.30
2023-05-11T09:34:19.448Z,0.37
2023-05-11T09:37:21.915Z,0.30
2023-05-11T09:40:33.478Z,0.40
2023-05-11T09:43:36.107Z,0.30
2023-05-11T09:46:39.157Z,0.50
2023-05-11T09:49:45.239Z,0.30
2023-05-11T09:52:52.228Z,0.30
2023-05-11T09:55:56.873Z,0.40
2023-05-11T09:58:59.872Z,0.30
2023-05-11T10:02:24.342Z,0.30
2023-05-11T10:05:26.823Z,0.20
2023-05-11T10:08:30.748Z,0.20
2023-05-11T10:11:32.625Z,0.20
2023-05-11T10:14:35.023Z,0.10
2023-05-11T10:17:37.958Z,0.20
2023-05-11T10:20:40.196Z,0.40
2023-05-11T10:23:42.668Z,0.30
2023-05-11T10:26:45.321Z,0.40
2023-05-11T10:29:49.396Z,0.40
2023-05-11T10:32:51.891Z,0.50
2023-05-11T10:35:54.325Z,0.50
2023-05-11T10:38:56.910Z,0.60
2023-05-11T10:42:37.864Z,0.77
2023-05-11T10:45:52.948Z,0.70
2023-05-11T10:49:16.375Z,0.70
2023-05-11T10:52:40.040Z,0.40
2023-05-11T10:56:06.476Z,0.70
2023-05-11T10:59:21.783Z,0.40
2023-05-11T11:02:24.871Z,0.60
2023-05-11T11:05:35.176Z,0.50
2023-05-11T11:09:00.539Z,0.30
2023-05-11T11:12:10.100Z,0.43
2023-05-11T11:15:11.942Z,0.40
2023-05-11T11:18:23.888Z,0.50
2023-05-11T11:21:46.035Z,0.60
2023-05-11T11:24:48.746Z,0.70
2023-05-11T11:27:50.718Z,0.93
2023-05-11T11:31:27.091Z,0.50
2023-05-11T11:34:28.916Z,0.40
2023-05-11T11:38:00.641Z,0.50
2023-05-11T11:41:02.578Z,0.70
2023-05-11T11:44:04.728Z,0.80
2023-05-11T11:47:16.633Z,0.40
2023-05-11T11:50:20.452Z,0.40
2023-05-11T11:53:54.962Z,0.43
2023-05-11T11:56:56.867Z,0.40
2023-05-11T12:00:07.599Z,0.50
2023-05-11T12:03:10.806Z,0.60
2023-05-11T12:06:14.353Z,0.60
2023-05-11T12:09:19.686Z,0.90
2023-05-11T12:12:21.687Z,0.60
2023-05-11T12:15:28.921Z,0.60
2023-05-11T12:18:30.926Z,1.60
2023-05-11T12:21:33.901Z,0.80
2023-05-11T12:24:35.866Z,1.17
2023-05-11T12:27:49.411Z,0.70
2023-05-11T12:30:58.320Z,0.60
2023-05-11T12:34:02.352Z,0.57
2023-05-11T12:37:06.426Z,0.33
2023-05-11T12:40:11.337Z,0.40
2023-05-11T12:43:17.551Z,0.37
2023-05-11T12:46:21.020Z,0.43
2023-05-11T12:49:27.264Z,0.43
2023-05-11T12:52:29.349Z,0.50
2023-05-11T12:55:31.356Z,0.50
2023-05-11T12:58:38.389Z,0.50
2023-05-11T13:01:40.284Z,1.00
2023-05-11T13:04:43.163Z,0.40
2023-05-11T13:07:46.105Z,0.50
2023-05-11T13:10:48.621Z,0.70
2023-05-11T13:13:54.713Z,0.60
2023-05-11T13:16:56.889Z,0.57
2023-05-11T13:20:16.117Z,0.60
2023-05-11T13:23:22.174Z,0.60
2023-05-11T13:26:29.361Z,0.87
2023-05-11T13:29:31.622Z,0.57
2023-05-11T13:32:33.615Z,0.43
2023-05-11T13:35:42.722Z,0.70
2023-05-11T13:38:44.690Z,0.60
2023-05-11T13:41:46.880Z,0.50
2023-05-11T13:44:48.843Z,0.60
2023-05-11T13:47:50.815Z,0.40
2023-05-11T13:50:52.647Z,0.60
2023-05-11T13:53:54.778Z,0.67
2023-05-11T13:56:57.224Z,0.57
2023-05-11T13:59:59.139Z,0.33
2023-05-11T14:03:01.449Z,0.47
2023-05-11T14:06:03.575Z,0.30
2023-05-11T14:09:05.383Z,0.60
2023-05-11T14:12:07.577Z,0.40
2023-05-11T14:15:10.352Z,0.50
2023-05-11T14:18:12.717Z,0.67
2023-05-11T14:21:14.815Z,0.40
2023-05-11T14:24:16.769Z,0.50
2023-05-11T14:27:19.432Z,0.40
2023-05-11T14:30:22.707Z,0.50
2023-05-11T14:33:25.818Z,0.80
2023-05-11T14:36:28.837Z,0.87
2023-05-11T14:39:30.685Z,0.70
2023-05-11T14:42:33.172Z,1.00
2023-05-11T14:45:35.027Z,0.70
2023-05-11T14:48:36.966Z,0.80
2023-05-11T14:51:39.673Z,0.60
2023-05-11T14:54:42.959Z,0.63
2023-05-11T14:57:45.019Z,0.67
2023-05-11T15:00:47.045Z,0.70
2023-05-11T15:03:49.420Z,0.60
2023-05-11T15:06:51.975Z,0.30
2023-05-11T15:09:54.335Z,0.50
2023-05-11T15:12:56.361Z,0.40
2023-05-11T15:15:58.416Z,0.70
2023-05-11T15:19:00.574Z,0.50
2023-05-11T15:22:02.642Z,0.47
2023-05-11T15:25:05.386Z,0.30
2023-05-11T15:28:07.430Z,0.50
2023-05-11T15:31:09.430Z,0.40
2023-05-11T15:34:11.277Z,0.43
2023-05-11T15:37:13.610Z,0.50
2023-05-11T15:40:16.646Z,0.70
2023-05-11T15:43:18.810Z,0.73
2023-05-11T15:46:20.852Z,0.70
2023-05-11T15:49:22.893Z,0.70
2023-05-11T15:52:24.830Z,0.80
2023-05-11T15:55:26.623Z,1.03
2023-05-11T15:58:29.514Z,0.87
2023-05-11T16:01:31.907Z,0.77
2023-05-11T16:04:33.852Z,1.00
2023-05-11T16:07:35.744Z,0.70
2023-05-11T16:10:40.332Z,0.70
2023-05-11T16:13:42.275Z,0.77
2023-05-11T16:16:44.523Z,0.40
2023-05-11T16:19:46.539Z,0.50
2023-05-11T16:22:48.460Z,0.70
2023-05-11T16:25:50.332Z,0.73
2023-05-11T16:28:52.731Z,0.73
2023-05-11T16:31:55.400Z,0.77
2023-05-11T16:34:57.424Z,0.70
2023-05-11T16:38:00.211Z,0.90
2023-05-11T16:41:02.094Z,0.90
2023-05-11T16:44:04.011Z,0.70
2023-05-11T16:47:05.925Z,0.77
2023-05-11T16:50:08.638Z,0.90
2023-05-11T16:53:10.635Z,0.60
2023-05-11T16:56:13.830Z,0.50
2023-05-11T16:59:15.688Z,0.80
2023-05-11T17:02:17.675Z,0.80
2023-05-11T17:05:21.633Z,0.80
2023-05-11T17:08:23.638Z,0.80
2023-05-11T17:11:25.596Z,0.60
2023-05-11T17:14:27.479Z,0.70
2023-05-11T17:17:29.693Z,0.70
2023-05-11T17:20:32.122Z,0.60
2023-05-11T17:23:35.142Z,0.53
2023-05-11T17:26:47.184Z,0.80
2023-05-11T17:29:50.743Z,0.90
2023-05-11T17:32:53.013Z,1.00
2023-05-11T17:35:55.117Z,0.97
2023-05-11T17:38:57.511Z,0.90
2023-05-11T17:41:59.877Z,0.87
2023-05-11T17:45:01.869Z,1.07
2023-05-11T17:48:03.943Z,1.33
2023-05-11T17:51:05.821Z,1.40
2023-05-11T17:54:08.035Z,1.20
2023-05-11T17:57:12.318Z,1.20
2023-05-11T18:00:14.786Z,1.17
2023-05-11T18:03:17.282Z,0.90
2023-05-11T18:06:19.417Z,0.90
2023-05-11T18:09:21.275Z,0.60
2023-05-11T18:12:23.205Z,1.00
2023-05-11T18:15:25.060Z,0.73
2023-05-11T18:18:27.748Z,0.80
2023-05-11T18:21:29.698Z,0.80
2023-05-11T18:24:31.993Z,1.03
2023-05-11T18:27:34.073Z,0.97
2023-05-11T18:30:36.117Z,0.80
2023-05-11T18:33:38.153Z,0.70
2023-05-11T18:36:40.160Z,0.73
2023-05-11T18:39:42.096Z,0.80
2023-05-11T18:42:44.974Z,0.90
2023-05-11T18:45:47.038Z,0.40
2023-05-11T18:48:56.163Z,0.90
2023-05-11T18:51:58.601Z,0.80
2023-05-11T18:55:00.607Z,0.73
2023-05-11T18:58:02.688Z,1.10
2023-05-11T19:01:04.877Z,0.90
2023-05-11T19:04:09.292Z,0.60
2023-05-11T19:07:11.138Z,1.10
2023-05-11T19:10:13.304Z,0.80
2023-05-11T19:13:15.291Z,0.80
2023-05-11T19:16:17.734Z,0.80
2023-05-11T19:19:20.584Z,0.90
2023-05-11T19:22:23.406Z,0.90
2023-05-11T19:25:25.869Z,0.63
2023-05-11T19:28:28.058Z,0.80
2023-05-11T19:31:31.587Z,0.70
2023-05-11T19:34:34.404Z,0.50
2023-05-11T19:37:36.329Z,0.50
2023-05-11T19:40:46.041Z,0.60
2023-05-11T19:43:48.494Z,0.80
2023-05-11T19:46:50.542Z,0.80
2023-05-11T19:49:52.878Z,0.60
2023-05-11T19:52:54.942Z,0.70
2023-05-11T19:55:57.046Z,0.70
2023-05-11T19:58:59.323Z,0.83
2023-05-11T20:02:02.745Z,0.73
2023-05-11T20:05:06.250Z,0.70
2023-05-11T20:08:08.930Z,0.50
2023-05-11T20:11:10.957Z,0.70
2023-05-11T20:14:13.189Z,0.57
2023-05-11T20:17:15.260Z,0.70
2023-05-11T20:20:20.189Z,0.80
2023-05-11T20:23:24.407Z,0.53
2023-05-11T20:26:26.410Z,0.70
2023-05-11T20:29:28.779Z,0.70
2023-05-11T20:32:30.833Z,0.67
2023-05-11T20:35:33.306Z,0.70
2023-05-11T20:38:35.702Z,0.63
2023-05-11T20:41:37.712Z,0.60
2023-05-11T20:44:39.896Z,0.90
2023-05-11T20:47:41.886Z,0.73
2023-05-11T20:50:51.242Z,0.77
2023-05-11T20:53:53.899Z,1.00
2023-05-11T20:56:55.959Z,0.60
2023-05-11T21:03:03.297Z,0.70
2023-05-11T21:06:06.764Z,0.53
2023-05-11T21:09:09.601Z,0.80
2023-05-11T21:12:11.597Z,0.63
2023-05-11T21:15:14.019Z,0.70
2023-05-11T21:18:15.913Z,0.77
2023-05-11T21:21:17.888Z,1.03
2023-05-11T21:24:20.488Z,0.90
2023-05-11T21:27:22.419Z,1.10
2023-05-11T21:30:25.248Z,0.87
2023-05-11T21:33:27.161Z,0.60
2023-05-11T21:36:29.351Z,0.57
2023-05-11T21:39:31.337Z,0.70
2023-05-11T21:42:36.411Z,0.80
2023-05-11T21:45:48.916Z,0.70
2023-05-11T21:48:53.418Z,0.80
2023-05-11T21:51:55.311Z,0.63
2023-05-11T21:54:57.359Z,0.73
2023-05-11T21:57:59.328Z,0.70
2023-05-11T22:01:01.848Z,0.70
2023-05-11T22:04:03.995Z,0.70
2023-05-11T22:07:05.962Z,0.83
2023-05-11T22:10:09.025Z,0.77
2023-05-11T22:13:11.137Z,0.60
2023-05-11T22:16:13.243Z,0.70
2023-05-11T22:19:15.320Z,0.80
2023-05-11T22:22:18.188Z,1.20
2023-05-11T22:25:20.136Z,0.87
2023-05-11T22:28:22.078Z,1.00
2023-05-11T22:31:25.630Z,0.83
2023-05-11T22:34:28.339Z,0.93
2023-05-11T22:37:31.708Z,1.20
2023-05-11T22:40:33.767Z,1.03
2023-05-11T22:43:36.267Z,0.80
2023-05-11T22:46:38.311Z,0.87
2023-05-11T22:49:40.329Z,0.83
2023-05-11T22:52:42.999Z,1.00
2023-05-11T22:55:45.014Z,0.90
2023-05-11T22:58:47.153Z,0.90
2023-05-11T23:01:50.062Z,1.07
2023-05-11T23:04:53.173Z,1.07
2023-05-11T23:07:56.325Z,1.10
2023-05-11T23:10:58.625Z,0.97
2023-05-11T23:14:00.995Z,1.10
2023-05-11T23:17:03.010Z,1.20
2023-05-11T23:20:05.828Z,1.40
2023-05-11T23:23:07.748Z,1.27
2023-05-11T23:26:10.754Z,1.10
2023-05-11T23:29:12.736Z,1.50
2023-05-11T23:32:16.251Z,1.10
2023-05-11T23:35:18.674Z,1.17
2023-05-11T23:38:20.905Z,1.20
2023-05-11T23:41:22.986Z,1.50
2023-05-11T23:44:24.985Z,1.17
2023-05-11T23:47:27.244Z,1.03
2023-05-11T23:50:29.676Z,1.20
2023-05-11T23:53:31.997Z,1.33
2023-05-11T23:56:33.973Z,1.10
2023-05-11T23:59:36.021Z,1.57
